Other Surface Observations
Issued by NWS Missoula, MT

Home | Current Version | Previous Version | Text Only | Print | Product List | Glossary On
Versions: 1 2 3 4 5 6 7 8 9 10 11 12 13 14 15 16 17 18 19 20 21 22 23 24 25 26 27 28 29 30 31 32 33 34 35 36 37 38 39 40 41 42 43 44 45 46 47 48 49 50
000
SXUS55 KMSO 252103
OSOMSO
MONTANA AWOS SUMMARY
NATIONAL WEATHER SERVICE MISSOULA MT
303 PM MDT SUN SEP 25 2016

Montana AWOS Reports

LAUREL      |K6S8 252055Z AUTO VRB06KT 40SM 19/01 A3028 RMK AO1 T01890011
TWIN BRIDGES|K7S1 252055Z AUTO 00000KT 5SM HZ 17/00 A3037 RMK AO1 T01670000
ROUNDUP     |KRPX 252055Z AUTO 24010G14KT 40SM 18/01 A3019 RMK AO1 T01830011
SCOBEY      |K9S2 252055Z AUTO 29020G26KT 40SM 18/M01 A3019 RMK AO1 T01781010
EKALAKA     |K97M 252055Z AUTO 26015G20KT 40SM 15/00 A3025 RMK AO1 T01500000
PLAINS      |KS34 252055Z AUTO 00000KT 25SM 20/03 A3038 RMK AO1 T02000033




USA.gov is the U.S. government's official web portal to all federal, state and local government web resources and services.